Startpagina
METAR-TAF:

METAR-TAF

Vliegvelden :

Hoedspruit, Zuid-Afrika

breedte: 24-21-17S, lengte: 31-03-01E, hoogte: 531 m

Actueel weer

Dit bericht is 37 minuten geleden gemaakt, om 07:00 UTC
Wind 3 kt uit het noorden
Temperatuur 17°C
Vochtigheid 94%
Druk 1024 hPa

METAR: FAHS 230700Z AUTO 35003KT //// // ////// 17/16 Q1024

Tijdstip: 09:37 (07:37 UTC)

Verwachting

Dit bericht is 1 uur en het 37 minuten geleden gemaakt, om 06:00 UTC
Verwachting geldig van 23 om 07 UTC tot 23 om 18 UTC
Wind 5 kt uit het noorden
Zicht 10 km of meer
Gebroken wolken op 2000 ft
Wijzigt naar
van 23 om 07 UTC tot 23 om 09 UTC
Verspreide wolken op 2500 ft
Wijzigt naar
van 23 om 09 UTC tot 23 om 11 UTC
Zicht 10 km of meer
geen wolken onder 1500 m en geen cumulonimbus
Wijzigt naar
van 23 om 15 UTC tot 23 om 17 UTC
Wind 3 kt uit variabele richting

TAF: FAHS 230600Z 2307/2318 35005KT 9999 BKN020 TX28/2312Z TN18/2307Z BECMG 2307/2309 SCT025 BECMG 2309/2311 CAVOK BECMG 2315/2317 VRB03KT

Waarnemingen en weersverwachtingen van meer dan 4000 vliegvelden (METAR en TAF).

De beschikbare stations zijn de gele en rode punten op de kaart.

Ga met uw muis naar het station om de naam te zien.

Klik dan om waarnemingen en weersverwachtingen te zien.

kaart wijzigen: klik op de groene knoppen met een zwart kruis om in te zoomen, op de groene knop met een streepje om uit te zoomen of op de groene pijlen voor aangrenzende kaarten.


METAR-TAF: